Time;durP1;ratioP1;P1;durP2;ratioP2;P2;SDS_P1;SDS_P2;PMS_P1;PMS_P2;Temp;Humidity;BMP_temperature;BMP_pressure;BME280_temperature;BME280_humidity;BME280_pressure;Samples;Min_cycle;Max_cycle;Signal;HPM_P1;HPM_P2
2022/01/03 00:01:19;;;;;;;1.30;1.10;;;12.10;98.00;;;;;;5054409;28;20449;-69
2022/01/03 00:03:47;;;;;;;1.47;1.20;;;12.10;98.00;;;;;;5054105;28;20518;-68
2022/01/03 00:06:15;;;;;;;1.20;1.10;;;12.00;98.00;;;;;;5054046;28;20485;-68
2022/01/03 00:08:43;;;;;;;1.70;1.23;;;12.10;98.00;;;;;;5054184;28;20498;-70
2022/01/03 00:11:12;;;;;;;1.20;1.00;;;12.10;98.00;;;;;;5053906;28;20508;-69
2022/01/03 00:13:44;;;;;;;1.20;1.00;;;12.10;98.00;;;;;;5054137;28;20462;-68
2022/01/03 00:16:12;;;;;;;1.20;1.00;;;12.10;98.00;;;;;;5054013;28;20537;-69
2022/01/03 00:18:39;;;;;;;1.20;1.10;;;12.20;98.00;;;;;;5054142;28;20489;-69
2022/01/03 00:21:11;;;;;;;1.20;1.10;;;12.10;98.00;;;;;;5052728;28;20878;-70
2022/01/03 00:23:40;;;;;;;1.43;1.10;;;12.10;98.00;;;;;;5053938;28;20545;-69
2022/01/03 00:26:09;;;;;;;1.20;1.00;;;12.10;98.00;;;;;;5053775;28;20491;-69
2022/01/03 00:28:40;;;;;;;1.20;1.10;;;12.20;98.00;;;;;;5053957;28;20562;-69
2022/01/03 00:31:08;;;;;;;1.20;1.00;;;12.10;98.00;;;;;;5053686;28;20491;-68
2022/01/03 00:33:35;;;;;;;1.20;1.10;;;12.10;98.00;;;;;;5053591;28;20499;-68
2022/01/03 00:36:05;;;;;;;1.50;1.27;;;12.10;98.00;;;;;;5053338;28;20505;-69
2022/01/03 00:38:35;;;;;;;1.20;1.00;;;12.10;98.00;;;;;;5053115;28;20455;-70
2022/01/03 00:41:03;;;;;;;1.20;1.10;;;12.10;98.00;;;;;;5053857;28;20935;-68
2022/01/03 00:43:31;;;;;;;1.20;1.00;;;12.10;98.00;;;;;;5053641;28;20456;-68
2022/01/03 00:45:58;;;;;;;1.20;1.00;;;12.10;98.00;;;;;;5053626;28;20492;-70
2022/01/03 00:48:27;;;;;;;1.20;1.00;;;12.00;98.00;;;;;;5053281;28;20515;-69
2022/01/03 00:50:54;;;;;;;1.30;1.00;;;12.00;98.00;;;;;;5053432;28;20487;-68
2022/01/03 00:53:21;;;;;;;1.80;1.17;;;12.00;98.00;;;;;;5052477;28;20455;-68
2022/01/03 00:56:03;;;;;;;2.07;1.20;;;12.00;98.00;;;;;;5053317;28;20494;-69
2022/01/03 00:58:35;;;;;;;1.20;1.10;;;12.00;98.00;;;;;;5053466;28;20461;-70
2022/01/03 01:01:05;;;;;;;1.20;1.00;;;12.00;98.00;;;;;;5053205;28;20949;-69
2022/01/03 01:03:37;;;;;;;1.20;1.10;;;12.00;98.00;;;;;;5052820;28;20488;-68
2022/01/03 01:06:07;;;;;;;1.20;1.10;;;12.00;98.00;;;;;;5053053;28;20486;-68
2022/01/03 01:08:35;;;;;;;1.90;1.20;;;12.00;98.00;;;;;;5051663;28;20514;-69
2022/01/03 01:11:04;;;;;;;1.40;1.10;;;12.00;98.00;;;;;;5052949;28;20850;-68
2022/01/03 01:13:31;;;;;;;1.20;1.00;;;12.00;98.00;;;;;;5052861;28;20856;-68
2022/01/03 01:15:58;;;;;;;1.20;1.00;;;12.00;98.00;;;;;;5052911;28;20487;-68
2022/01/03 01:18:26;;;;;;;1.30;1.10;;;12.00;98.00;;;;;;5052780;28;21111;-68
2022/01/03 01:20:55;;;;;;;1.20;1.07;;;12.00;98.00;;;;;;5052597;28;20483;-69
2022/01/03 01:23:23;;;;;;;1.20;1.10;;;12.00;98.00;;;;;;5051533;28;20496;-68
2022/01/03 01:28:34;;;;;;;1.90;1.13;;;12.10;98.00;;;;;;5052409;28;20495;-69
2022/01/03 01:31:03;;;;;;;1.20;1.00;;;12.10;98.00;;;;;;5052635;28;20484;-68
2022/01/03 01:33:34;;;;;;;1.20;1.00;;;12.10;98.00;;;;;;5052802;28;20488;-69
2022/01/03 01:36:05;;;;;;;2.03;1.10;;;12.20;98.00;;;;;;5051458;28;20510;-68
2022/01/03 01:38:39;;;;;;;5.80;1.63;;;12.10;98.00;;;;;;5052280;28;20496;-69
2022/01/03 01:41:08;;;;;;;1.20;1.10;;;12.10;98.00;;;;;;5052075;28;20882;-68
2022/01/03 01:43:37;;;;;;;1.20;1.00;;;12.10;98.00;;;;;;5052369;28;20491;-69
2022/01/03 01:46:09;;;;;;;1.20;1.00;;;12.10;98.00;;;;;;5051787;28;20968;-68
2022/01/03 01:48:38;;;;;;;1.30;1.10;;;12.20;98.00;;;;;;5052301;28;21183;-69
2022/01/03 01:51:08;;;;;;;1.40;1.30;;;12.20;98.00;;;;;;5052357;28;20497;-69
2022/01/03 01:53:42;;;;;;;1.20;1.10;;;12.20;98.00;;;;;;5052200;28;20794;-69
2022/01/03 01:56:16;;;;;;;1.67;1.20;;;12.20;98.00;;;;;;5050965;28;20480;-69
2022/01/03 01:59:11;;;;;;;1.20;1.00;;;12.20;98.00;;;;;;5050951;28;20513;-68
2022/01/03 02:01:50;;;;;;;1.20;1.03;;;12.20;98.00;;;;;;5052039;28;20466;-69
2022/01/03 02:04:53;;;;;;;1.20;1.00;;;12.20;98.00;;;;;;5050872;28;20482;-68
2022/01/03 02:07:41;;;;;;;1.20;1.00;;;12.20;98.00;;;;;;5044774;28;20519;-68
2022/01/03 02:10:10;;;;;;;1.20;1.20;;;12.20;98.00;;;;;;5052112;28;20487;-69
2022/01/03 02:12:40;;;;;;;1.30;1.10;;;12.30;98.00;;;;;;5052078;28;20464;-68
2022/01/03 02:15:11;;;;;;;2.13;1.27;;;12.20;98.00;;;;;;5052083;28;20488;-68
2022/01/03 02:17:39;;;;;;;1.30;1.23;;;12.20;98.00;;;;;;5052147;28;20456;-69
2022/01/03 02:20:10;;;;;;;1.20;1.10;;;12.20;98.00;;;;;;5051952;28;20458;-68
2022/01/03 02:22:38;;;;;;;1.20;1.00;;;12.20;98.00;;;;;;5051861;28;21045;-69
2022/01/03 02:25:06;;;;;;;1.20;1.00;;;12.20;98.00;;;;;;5051957;28;20493;-68
2022/01/03 02:27:33;;;;;;;1.20;1.00;;;12.20;98.00;;;;;;5051472;28;20688;-68
2022/01/03 02:30:01;;;;;;;1.20;1.10;;;12.30;98.00;;;;;;5051740;28;20502;-69
2022/01/03 02:32:28;;;;;;;1.43;1.20;;;12.20;98.00;;;;;;5051885;28;20487;-69
2022/01/03 02:34:55;;;;;;;2.47;1.17;;;12.20;98.00;;;;;;5051671;28;20556;-68
2022/01/03 02:37:25;;;;;;;1.20;1.00;;;12.20;98.00;;;;;;5051257;28;20552;-68
2022/01/03 02:39:52;;;;;;;1.20;1.00;;;12.20;98.00;;;;;;5051003;28;20501;-69
2022/01/03 02:42:23;;;;;;;1.20;1.00;;;12.20;98.00;;;;;;5051170;28;20962;-68
2022/01/03 02:45:00;;;;;;;1.73;1.20;;;12.20;98.00;;;;;;5051733;28;20792;-69
2022/01/03 02:47:27;;;;;;;1.97;1.60;;;12.20;98.00;;;;;;5051304;28;20984;-68
2022/01/03 02:49:54;;;;;;;1.30;1.10;;;12.20;98.00;;;;;;5051510;28;20958;-68
2022/01/03 02:52:22;;;;;;;1.20;0.90;;;12.10;98.00;;;;;;5051338;28;20460;-68
2022/01/03 02:54:51;;;;;;;1.20;1.00;;;12.10;98.00;;;;;;5051476;28;20523;-69
2022/01/03 02:57:22;;;;;;;1.20;1.00;;;12.10;98.00;;;;;;5051731;28;20458;-69
2022/01/03 02:59:54;;;;;;;1.20;1.00;;;12.10;98.00;;;;;;5055568;28;20541;-68
2022/01/03 03:02:22;;;;;;;1.20;1.10;;;12.10;98.00;;;;;;5055271;28;20463;-68
2022/01/03 03:04:54;;;;;;;1.20;1.00;;;12.10;98.00;;;;;;5055433;28;20455;-68
2022/01/03 03:07:21;;;;;;;1.20;1.00;;;12.10;98.00;;;;;;5055233;28;20539;-68
2022/01/03 03:09:50;;;;;;;1.20;1.00;;;12.20;98.00;;;;;;5055230;28;20455;-68
2022/01/03 03:12:19;;;;;;;1.30;1.30;;;12.20;98.00;;;;;;5055211;28;20516;-69
2022/01/03 03:14:46;;;;;;;2.23;1.30;;;12.10;98.00;;;;;;5055141;28;20497;-69
2022/01/03 03:17:13;;;;;;;1.20;0.90;;;12.10;98.00;;;;;;5055184;28;20492;-69
2022/01/03 03:19:56;;;;;;;1.20;1.10;;;12.00;98.00;;;;;;5055217;28;20467;-69
2022/01/03 03:22:24;;;;;;;1.20;0.97;;;12.00;98.00;;;;;;5055080;28;20534;-68
2022/01/03 03:24:59;;;;;;;1.70;1.60;;;12.00;98.00;;;;;;5055064;28;20483;-68
2022/01/03 03:27:26;;;;;;;1.20;1.03;;;12.00;98.00;;;;;;5054558;28;21049;-69
2022/01/03 03:29:53;;;;;;;1.20;1.00;;;12.00;98.00;;;;;;5054987;28;20541;-69
2022/01/03 03:32:21;;;;;;;1.20;1.03;;;12.00;98.00;;;;;;5055038;28;20497;-68
2022/01/03 03:34:49;;;;;;;1.57;1.20;;;11.90;98.00;;;;;;5055033;28;20490;-68
2022/01/03 03:37:17;;;;;;;1.20;0.90;;;12.00;98.00;;;;;;5055016;28;20455;-69
2022/01/03 03:39:44;;;;;;;1.20;1.00;;;11.90;98.00;;;;;;5054693;28;20989;-69
2022/01/03 03:42:13;;;;;;;1.20;0.90;;;11.90;98.00;;;;;;5054944;28;20491;-69
2022/01/03 03:44:40;;;;;;;1.87;1.30;;;11.90;98.00;;;;;;5054985;28;20933;-69
2022/01/03 03:47:08;;;;;;;1.20;1.10;;;11.90;98.00;;;;;;5054228;28;20463;-68
2022/01/03 03:49:36;;;;;;;1.20;1.00;;;11.90;98.00;;;;;;5054718;28;20525;-69
2022/01/03 03:52:03;;;;;;;1.30;1.00;;;11.90;98.00;;;;;;5054450;28;20458;-68
2022/01/03 03:54:31;;;;;;;1.20;1.00;;;11.90;98.00;;;;;;5054353;28;20463;-69
2022/01/03 03:56:58;;;;;;;1.20;1.17;;;11.90;98.00;;;;;;5053198;28;20518;-68
2022/01/03 03:59:27;;;;;;;1.20;0.90;;;11.90;98.00;;;;;;5054341;28;20502;-70
2022/01/03 04:01:55;;;;;;;1.20;1.00;;;11.90;98.00;;;;;;5054149;28;20454;-69
2022/01/03 04:04:24;;;;;;;1.20;1.10;;;11.90;98.00;;;;;;5054359;28;20559;-68
2022/01/03 04:06:53;;;;;;;1.50;1.27;;;12.00;98.00;;;;;;5054128;28;20458;-70
2022/01/03 04:09:20;;;;;;;1.20;1.00;;;12.00;98.00;;;;;;5053520;28;20525;-69
2022/01/03 04:11:47;;;;;;;1.20;0.93;;;12.00;98.00;;;;;;5054181;28;20458;-69
2022/01/03 04:14:14;;;;;;;1.70;1.50;;;11.90;98.00;;;;;;5052876;28;20950;-68
2022/01/03 04:16:43;;;;;;;1.20;1.00;;;11.90;98.00;;;;;;5053939;28;20537;-69
2022/01/03 04:19:10;;;;;;;1.20;0.90;;;11.80;98.00;;;;;;5053515;28;20460;-69
2022/01/03 04:21:39;;;;;;;1.20;0.97;;;11.80;98.00;;;;;;5053135;28;20506;-69
2022/01/03 04:24:07;;;;;;;1.20;1.00;;;11.70;98.00;;;;;;5053314;28;20455;-68
2022/01/03 04:26:34;;;;;;;1.20;1.10;;;11.70;98.00;;;;;;5052361;28;20462;-69
2022/01/03 04:29:01;;;;;;;1.20;1.00;;;11.70;98.00;;;;;;5052999;28;20579;-69
2022/01/03 04:31:29;;;;;;;1.20;1.00;;;11.70;98.00;;;;;;5053784;28;20490;-69
2022/01/03 04:33:58;;;;;;;1.20;0.90;;;11.70;98.00;;;;;;5053878;28;20465;-68
2022/01/03 04:39:11;;;;;;;1.20;1.00;;;11.80;98.00;;;;;;5053517;28;20552;-69
2022/01/03 04:41:38;;;;;;;1.20;1.10;;;11.70;98.00;;;;;;5053379;28;20943;-69
2022/01/03 04:44:07;;;;;;;1.67;1.33;;;11.70;98.00;;;;;;5053244;28;20461;-69
2022/01/03 04:46:35;;;;;;;1.67;1.37;;;11.70;98.00;;;;;;5053484;28;20505;-69
2022/01/03 04:49:05;;;;;;;1.20;1.00;;;11.70;98.00;;;;;;5053645;28;20560;-69
2022/01/03 04:51:32;;;;;;;1.23;1.03;;;11.70;98.00;;;;;;5053478;28;20947;-70
2022/01/03 04:54:01;;;;;;;1.20;1.00;;;11.70;98.00;;;;;;5053601;28;20495;-68
2022/01/03 04:56:28;;;;;;;1.20;1.00;;;11.70;98.00;;;;;;5053384;28;20494;-68
2022/01/03 04:58:55;;;;;;;1.20;1.00;;;11.70;98.00;;;;;;5053539;28;20486;-69
2022/01/03 05:01:22;;;;;;;1.20;1.00;;;11.70;98.00;;;;;;5053361;28;20454;-68
2022/01/03 05:03:50;;;;;;;1.20;1.00;;;11.70;98.00;;;;;;5053405;28;20489;-69
2022/01/03 05:06:18;;;;;;;1.20;1.20;;;11.70;98.00;;;;;;5053238;28;20461;-68
2022/01/03 05:08:49;;;;;;;1.23;1.10;;;11.50;98.00;;;;;;5053385;28;20606;-69
2022/01/03 05:11:16;;;;;;;1.20;1.00;;;11.40;98.00;;;;;;5053135;28;20459;-70
2022/01/03 05:13:43;;;;;;;1.20;1.00;;;11.30;98.00;;;;;;5052996;28;20509;-68
2022/01/03 05:16:10;;;;;;;1.20;0.93;;;11.20;98.00;;;;;;5052811;28;21009;-69
2022/01/03 05:18:37;;;;;;;1.20;0.90;;;11.10;98.00;;;;;;5052612;28;20492;-69
2022/01/03 05:21:04;;;;;;;1.20;1.00;;;11.10;98.00;;;;;;5052147;28;20903;-69
2022/01/03 05:23:33;;;;;;;1.27;1.20;;;11.00;98.00;;;;;;5052711;28;20984;-68
2022/01/03 05:26:00;;;;;;;1.20;0.90;;;11.00;98.00;;;;;;5052534;28;20487;-68
2022/01/03 05:28:27;;;;;;;1.20;1.00;;;11.00;98.00;;;;;;5052596;28;20481;-69
2022/01/03 05:30:55;;;;;;;1.20;1.00;;;10.90;98.00;;;;;;5052608;28;20873;-68
2022/01/03 05:33:22;;;;;;;1.57;1.13;;;10.70;98.00;;;;;;5051306;28;20491;-69
2022/01/03 05:35:51;;;;;;;1.30;1.00;;;10.60;98.00;;;;;;5051174;28;20541;-68
2022/01/03 05:38:18;;;;;;;1.20;1.00;;;10.40;98.00;;;;;;5051194;28;20449;-69
2022/01/03 05:40:46;;;;;;;1.83;1.43;;;10.30;98.00;;;;;;5052339;28;21017;-69
2022/01/03 05:43:14;;;;;;;1.40;1.07;;;10.20;98.00;;;;;;5052554;28;20494;-68
2022/01/03 05:45:40;;;;;;;1.20;1.00;;;10.20;98.00;;;;;;5050963;28;20543;-68
2022/01/03 05:48:09;;;;;;;1.20;0.90;;;10.20;98.00;;;;;;5052378;28;21004;-68
2022/01/03 05:50:37;;;;;;;1.20;0.90;;;10.30;98.00;;;;;;5052274;28;20517;-70
2022/01/03 05:53:04;;;;;;;1.20;1.00;;;10.20;98.00;;;;;;5051147;28;20486;-68
2022/01/03 05:55:31;;;;;;;1.10;0.90;;;10.30;98.00;;;;;;5052156;28;20544;-68
2022/01/03 05:58:00;;;;;;;1.20;0.90;;;10.30;98.00;;;;;;5052230;28;20549;-69
2022/01/03 06:00:27;;;;;;;1.20;1.00;;;10.30;98.00;;;;;;5052230;28;20492;-68
2022/01/03 06:02:57;;;;;;;1.20;1.10;;;10.30;98.00;;;;;;5052090;28;20456;-70
2022/01/03 06:08:13;;;;;;;1.20;1.00;;;10.20;98.00;;;;;;5048200;28;20536;-69
2022/01/03 06:10:41;;;;;;;1.40;1.27;;;10.20;98.00;;;;;;5051911;28;20858;-69
2022/01/03 06:13:09;;;;;;;1.20;0.90;;;10.20;98.00;;;;;;5052227;28;20459;-69
2022/01/03 06:15:38;;;;;;;1.20;1.00;;;10.10;98.00;;;;;;5052059;28;20488;-68
2022/01/03 06:18:10;;;;;;;1.20;1.00;;;10.00;98.00;;;;;;5052017;28;20519;-68
2022/01/03 06:20:38;;;;;;;1.40;1.00;;;10.00;98.00;;;;;;5051865;28;20468;-68
2022/01/03 06:23:06;;;;;;;1.20;1.00;;;9.80;98.00;;;;;;5051878;28;20466;-70
2022/01/03 06:25:33;;;;;;;1.20;0.90;;;9.70;98.00;;;;;;5051844;28;20500;-70
2022/01/03 06:28:00;;;;;;;1.20;1.00;;;9.70;98.00;;;;;;5051475;28;20489;-68
2022/01/03 06:30:28;;;;;;;1.20;1.00;;;9.70;98.00;;;;;;5051758;28;20527;-69
2022/01/03 06:32:55;;;;;;;1.40;1.00;;;9.90;98.00;;;;;;5051920;28;20867;-69
2022/01/03 06:35:23;;;;;;;1.20;1.00;;;10.00;98.00;;;;;;5052091;28;20962;-68
2022/01/03 06:37:50;;;;;;;1.20;1.00;;;10.00;98.00;;;;;;5050260;28;20453;-69
2022/01/03 06:40:18;;;;;;;1.87;1.20;;;9.90;98.00;;;;;;5051861;28;21056;-68
2022/01/03 06:42:45;;;;;;;1.10;0.93;;;9.90;98.00;;;;;;5051027;28;20503;-69
2022/01/03 06:45:12;;;;;;;1.10;0.90;;;9.70;98.00;;;;;;5050332;28;20810;-68
2022/01/03 06:47:41;;;;;;;1.10;1.00;;;9.80;98.00;;;;;;5051228;28;20482;-68
2022/01/03 06:50:09;;;;;;;1.20;1.00;;;9.80;98.00;;;;;;5051130;28;20521;-68
2022/01/03 06:52:36;;;;;;;1.20;1.00;;;9.70;98.00;;;;;;5051082;28;20460;-70
2022/01/03 06:55:04;;;;;;;2.23;1.10;;;9.70;98.00;;;;;;5050539;28;20561;-69
2022/01/03 06:57:31;;;;;;;1.13;0.93;;;9.60;98.00;;;;;;5051324;28;20461;-69
2022/01/03 06:59:59;;;;;;;1.10;0.90;;;9.50;98.00;;;;;;5051474;28;20486;-69
2022/01/03 07:02:26;;;;;;;1.40;1.13;;;9.50;98.00;;;;;;5051278;28;20460;-68
2022/01/03 07:04:55;;;;;;;1.20;1.10;;;9.50;98.00;;;;;;5051542;28;20586;-68
2022/01/03 07:07:24;;;;;;;1.10;1.00;;;9.40;98.00;;;;;;5051270;28;20463;-69
2022/01/03 07:09:52;;;;;;;1.20;1.00;;;9.40;98.00;;;;;;5051223;28;20517;-69
2022/01/03 07:12:29;;;;;;;1.10;0.90;;;9.40;98.00;;;;;;5051318;28;20456;-69
2022/01/03 07:20:26;;;;;;;1.10;0.97;;;9.30;98.00;;;;;;5051337;28;20488;-69
2022/01/03 07:22:53;;;;;;;1.17;1.00;;;9.30;98.00;;;;;;5051135;28;21025;-68
2022/01/03 07:25:20;;;;;;;1.10;0.90;;;9.30;98.00;;;;;;5051283;28;20465;-68
2022/01/03 07:27:47;;;;;;;1.17;1.10;;;9.30;98.00;;;;;;5051035;28;21003;-68
2022/01/03 07:30:14;;;;;;;1.10;1.00;;;9.30;98.00;;;;;;5051165;28;20586;-67
2022/01/03 07:32:43;;;;;;;1.10;0.90;;;9.40;98.00;;;;;;5050987;28;20485;-68
2022/01/03 07:35:13;;;;;;;1.10;1.00;;;9.40;98.00;;;;;;5051151;28;20455;-68
2022/01/03 07:37:42;;;;;;;1.40;1.00;;;9.40;98.00;;;;;;5051054;28;20460;-68
2022/01/03 07:40:10;;;;;;;1.10;0.90;;;9.40;98.00;;;;;;5050913;28;20566;-68
2022/01/03 07:42:37;;;;;;;1.10;1.00;;;9.30;98.00;;;;;;5051535;28;20551;-68
2022/01/03 07:45:04;;;;;;;2.47;1.57;;;9.30;98.00;;;;;;5054802;28;20830;-67
2022/01/03 07:47:31;;;;;;;1.17;1.00;;;9.30;98.00;;;;;;5054615;28;20895;-68
2022/01/03 07:49:58;;;;;;;1.10;1.00;;;9.50;98.00;;;;;;5054672;28;20488;-68
2022/01/03 07:52:25;;;;;;;1.20;1.00;;;9.60;98.00;;;;;;5054617;28;20511;-68
2022/01/03 07:54:54;;;;;;;1.27;1.10;;;9.50;98.00;;;;;;5054727;28;20560;-68
2022/01/03 07:57:21;;;;;;;1.30;1.30;;;9.30;98.00;;;;;;5054890;28;20515;-68
2022/01/03 07:59:48;;;;;;;1.10;1.00;;;9.40;98.00;;;;;;5054751;28;20489;-68
2022/01/03 08:02:15;;;;;;;2.13;1.40;;;9.40;98.00;;;;;;5054191;28;20492;-68
2022/01/03 08:04:42;;;;;;;1.63;1.40;;;9.40;98.00;;;;;;5054433;28;20539;-68
2022/01/03 08:07:09;;;;;;;1.33;1.30;;;9.40;98.00;;;;;;5052854;28;20489;-68
2022/01/03 08:09:36;;;;;;;1.10;1.00;;;9.30;98.00;;;;;;5053830;28;20522;-68
2022/01/03 08:12:05;;;;;;;1.20;1.10;;;9.20;98.00;;;;;;5054187;28;20493;-68
2022/01/03 08:14:34;;;;;;;14.97;1.30;;;9.20;98.00;;;;;;5054272;28;20519;-68
2022/01/03 08:17:01;;;;;;;1.10;0.90;;;9.20;98.00;;;;;;5053672;28;20533;-68
2022/01/03 08:19:28;;;;;;;1.10;1.00;;;9.30;98.00;;;;;;5054022;28;20532;-68
2022/01/03 08:21:55;;;;;;;1.10;0.90;;;9.40;98.00;;;;;;5052828;28;20990;-69
2022/01/03 08:24:23;;;;;;;1.20;1.00;;;9.60;98.00;;;;;;5054044;28;20523;-68
2022/01/03 08:26:50;;;;;;;1.10;1.00;;;9.60;98.00;;;;;;5053746;28;20493;-68
2022/01/03 08:29:19;;;;;;;1.30;1.10;;;9.50;98.00;;;;;;5053887;28;20485;-68
2022/01/03 08:31:46;;;;;;;1.10;1.00;;;9.40;98.00;;;;;;5052462;28;20453;-68
2022/01/03 08:34:13;;;;;;;1.10;0.90;;;9.50;98.00;;;;;;5053744;28;20883;-68
2022/01/03 08:36:40;;;;;;;1.10;0.90;;;9.50;98.00;;;;;;5053665;28;20489;-68
2022/01/03 08:39:09;;;;;;;1.10;0.90;;;9.60;98.00;;;;;;5053320;28;20537;-68
2022/01/03 08:41:36;;;;;;;1.10;1.00;;;9.60;98.00;;;;;;5053387;28;20450;-68
2022/01/03 08:44:03;;;;;;;1.80;1.20;;;9.60;98.00;;;;;;5053570;28;20546;-69
2022/01/03 08:46:32;;;;;;;1.10;1.00;;;9.60;98.00;;;;;;5053561;28;20453;-69
2022/01/03 08:48:59;;;;;;;1.10;1.00;;;9.80;98.00;;;;;;5053354;28;20545;-69
2022/01/03 08:51:26;;;;;;;1.20;1.17;;;9.80;98.00;;;;;;5043289;28;20546;-73
2022/01/03 08:53:54;;;;;;;1.10;1.00;;;9.90;98.00;;;;;;5026338;28;20541;-73
2022/01/03 08:56:21;;;;;;;1.20;1.00;;;10.00;98.00;;;;;;5037183;28;20465;-70
2022/01/03 08:58:48;;;;;;;1.20;1.00;;;9.90;98.00;;;;;;5035052;28;20458;-72
2022/01/03 09:01:15;;;;;;;1.47;1.13;;;10.00;98.00;;;;;;5031260;28;20493;-74
2022/01/03 09:03:44;;;;;;;1.60;1.20;;;10.00;98.00;;;;;;5036070;28;20469;-71
2022/01/03 09:06:11;;;;;;;1.20;1.10;;;10.00;98.00;;;;;;5040506;28;21003;-71
2022/01/03 09:08:38;;;;;;;1.17;1.00;;;10.10;98.00;;;;;;5039960;28;20490;-75
2022/01/03 09:11:05;;;;;;;1.20;1.10;;;10.00;98.00;;;;;;5036116;28;20501;-75
2022/01/03 09:13:34;;;;;;;2.60;1.70;;;10.00;98.00;;;;;;5032207;28;20553;-74
2022/01/03 09:16:04;;;;;;;1.10;1.00;;;10.00;98.00;;;;;;5044265;28;20466;-75
2022/01/03 09:18:32;;;;;;;1.10;0.90;;;10.00;98.00;;;;;;5036571;28;20911;-75
2022/01/03 09:21:01;;;;;;;1.90;1.20;;;10.00;98.00;;;;;;5044656;28;20450;-75
2022/01/03 09:23:32;;;;;;;1.20;1.00;;;10.10;98.00;;;;;;5039781;28;21214;-69
2022/01/03 09:28:52;;;;;;;3.63;1.37;;;10.20;98.00;;;;;;5045803;28;20448;-70
2022/01/03 09:31:23;;;;;;;1.20;1.00;;;10.30;98.00;;;;;;5039633;28;20492;-69
2022/01/03 09:33:50;;;;;;;1.20;1.00;;;10.30;98.00;;;;;;5036280;28;20460;-69
2022/01/03 09:36:19;;;;;;;1.20;1.00;;;10.30;98.00;;;;;;5040077;28;20969;-70
2022/01/03 09:38:46;;;;;;;1.20;1.00;;;10.40;98.00;;;;;;5039630;28;20520;-70
2022/01/03 09:41:15;;;;;;;1.20;0.90;;;10.40;98.00;;;;;;5047324;28;20547;-69
2022/01/03 09:43:49;;;;;;;2.03;1.20;;;10.40;98.00;;;;;;5046888;28;20492;-68
2022/01/03 09:46:20;;;;;;;1.40;1.00;;;10.50;98.00;;;;;;5039830;28;20458;-68
2022/01/03 09:48:53;;;;;;;1.20;1.10;;;10.60;98.00;;;;;;5039760;28;20501;-70
2022/01/03 09:51:23;;;;;;;1.27;1.20;;;10.70;98.00;;;;;;5028417;28;20494;-70
2022/01/03 09:53:51;;;;;;;1.20;1.00;;;10.70;98.00;;;;;;5022956;28;20497;-69
2022/01/03 09:56:19;;;;;;;1.20;1.00;;;10.80;98.00;;;;;;5032121;28;21014;-69
2022/01/03 09:58:47;;;;;;;1.20;1.10;;;10.90;98.00;;;;;;5032259;28;20505;-68
2022/01/03 10:01:13;;;;;;;1.20;1.00;;;10.90;98.00;;;;;;5032071;28;20494;-70
2022/01/03 10:03:47;;;;;;;1.20;1.00;;;10.90;98.00;;;;;;5032005;28;20501;-68
2022/01/03 10:06:16;;;;;;;1.50;1.10;;;11.00;98.00;;;;;;5030790;28;20463;-70
2022/01/03 10:08:48;;;;;;;1.20;1.00;;;11.00;98.00;;;;;;5032129;28;20460;-69
2022/01/03 10:11:15;;;;;;;1.20;1.10;;;11.00;98.00;;;;;;5032017;28;20540;-69
2022/01/03 10:13:42;;;;;;;1.20;1.00;;;11.10;98.00;;;;;;5032252;28;20956;-69
2022/01/03 10:16:09;;;;;;;1.20;1.00;;;11.10;98.00;;;;;;5032096;28;20866;-68
2022/01/03 10:18:37;;;;;;;1.20;1.10;;;11.20;98.00;;;;;;5031993;28;20469;-69
2022/01/03 10:21:06;;;;;;;1.43;1.00;;;11.20;98.00;;;;;;5032170;28;20517;-69
2022/01/03 10:23:33;;;;;;;1.20;1.20;;;11.20;98.00;;;;;;5032112;28;20452;-68
2022/01/03 10:26:20;;;;;;;1.20;1.00;;;11.20;98.00;;;;;;5031958;28;20873;-69
2022/01/03 10:28:47;;;;;;;1.20;1.00;;;11.30;98.00;;;;;;5032003;28;20545;-69
2022/01/03 10:31:17;;;;;;;1.20;1.00;;;11.30;98.00;;;;;;5030653;28;20493;-70
2022/01/03 10:33:45;;;;;;;1.20;0.90;;;11.40;98.00;;;;;;5030516;28;20473;-69
2022/01/03 10:36:28;;;;;;;1.20;1.00;;;11.30;98.00;;;;;;5031868;28;20457;-69
2022/01/03 10:38:57;;;;;;;13.23;2.00;;;11.40;98.00;;;;;;5031811;28;20477;-68
2022/01/03 10:41:27;;;;;;;1.20;1.10;;;11.40;98.00;;;;;;5031922;28;21023;-71
2022/01/03 10:43:56;;;;;;;1.20;1.00;;;11.40;98.00;;;;;;5032024;28;20543;-71
2022/01/03 10:46:27;;;;;;;3.53;1.30;;;11.50;98.00;;;;;;5031887;28;20504;-68
2022/01/03 10:49:13;;;;;;;1.20;0.90;;;11.50;98.00;;;;;;5031361;28;20478;-68
2022/01/03 10:51:41;;;;;;;2.23;1.60;;;11.50;98.00;;;;;;5030660;28;20483;-69
2022/01/03 10:54:10;;;;;;;1.20;0.97;;;11.50;98.00;;;;;;5030932;28;20574;-69
2022/01/03 10:56:43;;;;;;;1.20;1.00;;;11.60;98.00;;;;;;5030766;28;20457;-70
2022/01/03 10:59:22;;;;;;;1.20;1.00;;;11.60;98.00;;;;;;5030861;28;21019;-69
2022/01/03 11:01:53;;;;;;;1.20;1.00;;;11.60;98.00;;;;;;5030601;28;20457;-67
2022/01/03 11:04:31;;;;;;;2.70;1.20;;;11.70;98.00;;;;;;5020492;28;20447;-68
2022/01/03 11:13:12;;;;;;;1.20;1.00;;;11.70;98.00;;;;;;5010836;28;20455;-69
2022/01/03 11:15:42;;;;;;;1.20;1.00;;;11.70;98.00;;;;;;5011046;28;20514;-69
2022/01/03 11:18:10;;;;;;;1.20;1.00;;;11.70;98.00;;;;;;5012214;28;20464;-70
2022/01/03 11:20:37;;;;;;;1.20;1.00;;;11.70;98.00;;;;;;5014504;28;20986;-68
2022/01/03 11:23:05;;;;;;;1.20;1.10;;;11.80;98.00;;;;;;5014732;28;20448;-69
2022/01/03 11:25:34;;;;;;;1.20;0.97;;;11.80;98.00;;;;;;5013389;28;20524;-68
2022/01/03 11:28:02;;;;;;;1.30;1.10;;;11.80;98.00;;;;;;5013451;28;20490;-69
2022/01/03 11:30:31;;;;;;;1.20;1.10;;;11.80;98.00;;;;;;5014571;28;20562;-69
2022/01/03 11:33:00;;;;;;;1.20;1.10;;;11.80;98.00;;;;;;5014425;28;20459;-69
2022/01/03 11:35:27;;;;;;;1.20;0.90;;;11.80;98.00;;;;;;5014008;28;20949;-69
2022/01/03 11:37:55;;;;;;;1.20;0.93;;;11.80;98.00;;;;;;5014211;28;20548;-68
2022/01/03 11:40:22;;;;;;;1.30;1.23;;;11.90;98.00;;;;;;5013831;28;20504;-68
2022/01/03 11:42:49;;;;;;;1.20;1.10;;;11.90;98.00;;;;;;5014302;28;20539;-69
2022/01/03 11:45:17;;;;;;;1.20;0.90;;;11.90;98.00;;;;;;5014277;28;20590;-68
2022/01/03 11:47:45;;;;;;;1.20;1.00;;;11.90;98.00;;;;;;5012612;28;20529;-69
2022/01/03 11:50:12;;;;;;;1.20;0.97;;;11.90;98.00;;;;;;5013996;28;20516;-69
2022/01/03 11:52:42;;;;;;;1.20;1.00;;;12.00;98.00;;;;;;5012700;28;20456;-71
2022/01/03 11:55:13;;;;;;;1.20;0.90;;;12.00;98.00;;;;;;5013929;28;20467;-69
2022/01/03 12:03:40;;;;;;;1.20;1.00;;;12.10;98.00;;;;;;5013086;28;20505;-68
2022/01/03 12:06:10;;;;;;;1.20;0.90;;;12.10;98.00;;;;;;5013851;28;20455;-68
2022/01/03 12:08:39;;;;;;;1.40;1.10;;;12.10;98.00;;;;;;5014107;28;20463;-69
2022/01/03 12:11:20;;;;;;;1.20;1.00;;;12.10;98.00;;;;;;5013974;28;20546;-68
2022/01/03 12:13:49;;;;;;;1.20;1.00;;;12.10;98.00;;;;;;5012667;28;20769;-68
2022/01/03 12:16:17;;;;;;;1.20;1.00;;;12.10;98.00;;;;;;5013905;28;20456;-69
2022/01/03 12:19:01;;;;;;;1.20;1.00;;;12.20;98.00;;;;;;5012742;28;20457;-69
2022/01/03 12:21:53;;;;;;;1.20;1.00;;;12.10;98.00;;;;;;5013682;28;20452;-69
2022/01/03 12:24:42;;;;;;;1.20;1.10;;;12.20;98.00;;;;;;5013634;28;20460;-67
2022/01/03 12:27:37;;;;;;;1.60;1.60;;;12.20;98.00;;;;;;5013568;28;20468;-69
2022/01/03 12:30:15;;;;;;;1.20;1.10;;;12.20;98.00;;;;;;5013344;28;20525;-68
2022/01/03 12:32:45;;;;;;;1.20;1.00;;;12.20;98.00;;;;;;5013441;28;20526;-69
2022/01/03 12:35:24;;;;;;;1.20;1.20;;;12.20;98.00;;;;;;5013461;28;20839;-68
2022/01/03 12:38:12;;;;;;;1.20;1.00;;;12.20;98.00;;;;;;5013117;28;20469;-69
2022/01/03 12:40:51;;;;;;;1.20;1.10;;;12.20;98.00;;;;;;5013534;28;20541;-69
2022/01/03 12:43:20;;;;;;;1.20;1.00;;;12.20;98.00;;;;;;5012752;28;20543;-69
2022/01/03 12:45:55;;;;;;;1.57;1.00;;;12.20;98.00;;;;;;5013521;28;20461;-68
2022/01/03 12:48:24;;;;;;;1.20;1.00;;;12.20;98.00;;;;;;5013297;28;20959;-70
2022/01/03 12:51:14;;;;;;;1.20;1.03;;;12.20;98.00;;;;;;5013167;28;20485;-69
2022/01/03 12:53:55;;;;;;;1.20;1.00;;;12.20;98.00;;;;;;5013281;28;20457;-69
2022/01/03 12:56:31;;;;;;;2.90;1.93;;;12.20;98.00;;;;;;5013087;28;20557;-69
2022/01/03 12:58:59;;;;;;;1.20;1.00;;;12.20;98.00;;;;;;5013061;28;20495;-67
2022/01/03 13:01:35;;;;;;;1.20;1.07;;;12.30;98.00;;;;;;5012833;28;20512;-67
2022/01/03 13:04:19;;;;;;;1.33;1.23;;;12.30;98.00;;;;;;5011670;28;20461;-67
2022/01/03 13:06:49;;;;;;;1.20;1.10;;;12.30;98.00;;;;;;5010407;28;20456;-69
2022/01/03 13:09:17;;;;;;;1.30;1.10;;;12.30;98.00;;;;;;5012732;28;20453;-67
2022/01/03 13:11:46;;;;;;;1.20;1.00;;;12.30;98.00;;;;;;5012493;28;20485;-69
2022/01/03 13:14:18;;;;;;;1.20;1.00;;;12.30;98.00;;;;;;5012740;28;20535;-68
2022/01/03 13:16:47;;;;;;;1.20;1.10;;;12.30;98.00;;;;;;5012702;28;20467;-68
2022/01/03 13:19:16;;;;;;;2.00;1.47;;;12.20;98.00;;;;;;5012781;28;20496;-68
2022/01/03 13:21:45;;;;;;;1.20;1.00;;;12.20;98.00;;;;;;5012533;28;20454;-68
2022/01/03 13:24:17;;;;;;;1.20;1.00;;;12.20;98.00;;;;;;5012583;28;20866;-68
2022/01/03 13:27:07;;;;;;;1.20;1.00;;;12.20;98.00;;;;;;5012234;28;20497;-69
2022/01/03 13:29:39;;;;;;;1.20;1.10;;;12.10;98.00;;;;;;5005770;28;20609;-68